Time;durP1;ratioP1;P1;durP2;ratioP2;P2;SDS_P1;SDS_P2;PMS_P1;PMS_P2;Temp;Humidity;BMP_temperature;BMP_pressure;BME280_temperature;BME280_humidity;BME280_pressure;Samples;Min_cycle;Max_cycle;Signal;HPM_P1;HPM_P2
2021/10/30 00:00:06;;;;;;;;;19.00;18.00;;;;;15.48;74.70;99988.69;5044481;28;45566;-82
2021/10/30 00:02:31;;;;;;;;;18.67;17.00;;;;;15.50;75.10;99983.34;5044742;28;47390;-83
2021/10/30 00:04:57;;;;;;;;;22.00;19.33;;;;;15.44;74.62;99968.38;5079295;28;45347;-82
2021/10/30 00:07:25;;;;;;;;;21.33;18.33;;;;;15.52;74.44;99973.56;5060960;28;45612;-82
2021/10/30 00:09:51;;;;;;;;;18.00;17.00;;;;;15.48;74.28;99956.78;5061757;28;45410;-82
2021/10/30 00:12:16;;;;;;;;;19.33;18.33;;;;;15.49;74.90;99955.88;5059585;28;59010;-84
2021/10/30 00:14:51;;;;;;;;;22.00;17.33;;;;;15.52;74.44;99954.94;5074483;28;60920;-82
2021/10/30 00:17:16;;;;;;;;;20.33;17.33;;;;;15.51;74.46;99956.72;5078758;28;55161;-82
2021/10/30 00:19:41;;;;;;;;;20.33;17.33;;;;;15.51;74.23;99955.84;5077463;28;45629;-82
2021/10/30 00:22:10;;;;;;;;;17.67;17.67;;;;;15.47;74.67;99944.38;5075885;28;58648;-81
2021/10/30 00:24:35;;;;;;;;;22.33;16.33;;;;;15.50;74.19;99943.44;5060955;28;45413;-82
2021/10/30 00:27:02;;;;;;;;;19.33;16.33;;;;;15.45;74.66;99935.59;5079361;28;45362;-82
2021/10/30 00:29:28;;;;;;;;;17.67;15.67;;;;;15.52;74.29;99941.63;5047103;28;45474;-82
2021/10/30 00:31:54;;;;;;;;;18.67;17.33;;;;;15.53;74.31;99946.03;5074143;28;48024;-82
2021/10/30 00:34:20;;;;;;;;;20.67;18.00;;;;;15.48;74.21;99929.31;5058925;28;45351;-83
2021/10/30 00:36:46;;;;;;;;;19.33;16.33;;;;;15.47;74.52;99928.44;5061053;28;45503;-82
2021/10/30 00:39:11;;;;;;;;;15.33;14.33;;;;;15.53;74.61;99930.94;5060662;28;45489;-81
2021/10/30 00:41:37;;;;;;;;;18.67;17.67;;;;;15.49;74.32;99915.94;5060607;28;53375;-82
2021/10/30 00:44:18;;;;;;;;;19.00;16.00;;;;;15.48;74.20;99916.88;5078021;28;45418;-83
2021/10/30 00:46:48;;;;;;;;;18.00;14.00;;;;;15.55;74.21;99917.59;5060913;28;45308;-82
2021/10/30 00:49:17;;;;;;;;;14.67;14.67;;;;;15.51;74.50;99919.47;5060913;28;45543;-82
2021/10/30 00:51:44;;;;;;;;;20.00;14.33;;;;;15.53;74.68;99909.66;5039453;28;46157;-82
2021/10/30 00:54:10;;;;;;;;;15.33;15.33;;;;;15.54;74.04;99905.22;5041172;28;45508;-82
2021/10/30 00:56:36;;;;;;;;;16.33;13.33;;;;;15.56;74.27;99909.59;5077891;28;45336;-82
2021/10/30 00:59:03;;;;;;;;;20.00;15.33;;;;;15.57;74.60;99903.34;5060349;28;45478;-82
2021/10/30 01:01:29;;;;;;;;;13.67;13.67;;;;;15.60;73.96;99899.72;5051978;28;47896;-82
2021/10/30 01:03:57;;;;;;;;;16.67;14.33;;;;;15.60;74.37;99907.72;5055492;28;57295;-82
2021/10/30 01:06:23;;;;;;;;;17.67;12.67;;;;;15.62;74.11;99906.78;5020459;28;45440;-82
2021/10/30 01:08:48;;;;;;;;;13.67;12.67;;;;;15.62;74.13;99898.81;5078497;28;45624;-81
2021/10/30 01:11:15;;;;;;;;;13.00;12.00;;;;;15.60;74.05;99891.75;5059379;28;60254;-82
2021/10/30 01:13:41;;;;;;;;;14.00;13.33;;;;;15.59;74.09;99884.69;5060038;28;45514;-82
2021/10/30 01:16:10;;;;;;;;;17.67;13.33;;;;;15.62;74.51;99885.50;5059987;28;45596;-82
2021/10/30 01:18:36;;;;;;;;;15.00;13.33;;;;;15.64;73.94;99889.00;5078472;28;45442;-82
2021/10/30 01:21:01;;;;;;;;;13.00;11.00;;;;;15.66;74.24;99886.34;5077606;28;46838;-81
2021/10/30 01:23:29;;;;;;;;;13.33;12.00;;;;;15.67;74.27;99888.06;5077829;28;45487;-83
2021/10/30 01:25:59;;;;;;;;;21.00;11.67;;;;;15.64;74.37;99875.72;5035174;28;45469;-81
2021/10/30 01:28:26;;;;;;;;;14.00;14.00;;;;;15.67;74.31;99883.63;5078345;28;45156;-83
2021/10/30 01:30:54;;;;;;;;;12.00;11.00;;;;;15.66;74.13;99870.38;5051143;28;46477;-84
2021/10/30 01:33:23;;;;;;;;;13.67;13.67;;;;;15.67;74.42;99864.13;5077706;28;50797;-81
2021/10/30 01:35:48;;;;;;;;;17.00;12.00;;;;;15.68;74.24;99868.53;5058108;28;57888;-81
2021/10/30 01:38:14;;;;;;;;;14.33;12.00;;;;;15.60;74.36;99857.16;5078100;28;45851;-82
2021/10/30 01:40:47;;;;;;;;;12.67;11.33;;;;;15.68;74.31;99860.53;5059758;28;46826;-82
2021/10/30 01:43:16;;;;;;;;;13.33;12.00;;;;;15.69;74.43;99860.50;5052466;28;45620;-82
2021/10/30 01:45:42;;;;;;;;;14.33;14.33;;;;;15.69;74.32;99851.63;5034126;28;45250;-82
2021/10/30 01:48:10;;;;;;;;;11.00;11.00;;;;;15.69;74.15;99855.19;5042350;28;45557;-82
2021/10/30 01:50:39;;;;;;;;;16.00;14.33;;;;;15.71;74.54;99853.38;5059460;28;46343;-82
2021/10/30 01:53:07;;;;;;;;;13.33;11.00;;;;;15.66;74.33;99833.13;5059558;28;45422;-81
2021/10/30 01:55:35;;;;;;;;;11.33;11.33;;;;;15.67;74.17;99838.38;5077932;28;45403;-81
2021/10/30 01:58:00;;;;;;;;;11.00;11.00;;;;;15.71;74.16;99831.19;5026595;28;45213;-82
2021/10/30 02:00:26;;;;;;;;;11.67;11.67;;;;;15.70;74.70;99830.31;5028965;28;60163;-82
2021/10/30 02:02:51;;;;;;;;;11.33;9.33;;;;;15.71;74.33;99826.75;5073673;28;45268;-81
2021/10/30 02:05:17;;;;;;;;;12.33;10.67;;;;;15.70;74.75;99821.44;5077140;28;47228;-82
2021/10/30 02:07:42;;;;;;;;;16.67;10.67;;;;;15.69;74.75;99815.25;5044498;28;45587;-82
2021/10/30 02:10:08;;;;;;;;;11.00;11.00;;;;;15.69;74.51;99809.06;5075650;28;46699;-82
2021/10/30 02:12:34;;;;;;;;;9.33;9.33;;;;;15.67;74.90;99801.13;5059281;28;45547;-85
2021/10/30 02:14:59;;;;;;;;;8.00;8.00;;;;;15.64;74.66;99793.22;5059319;28;45336;-82
2021/10/30 02:17:25;;;;;;;;;11.33;10.00;;;;;15.68;74.62;99794.88;5077241;28;45232;-84
2021/10/30 02:19:50;;;;;;;;;12.00;11.00;;;;;15.67;75.09;99782.50;5076343;28;57717;-81
2021/10/30 02:22:15;;;;;;;;;11.33;10.00;;;;;15.66;75.21;99785.22;5058585;28;60468;-85
2021/10/30 02:24:41;;;;;;;;;13.67;10.33;;;;;15.68;74.86;99778.03;5077488;28;45416;-81
2021/10/30 02:27:07;;;;;;;;;8.33;7.33;;;;;15.68;75.16;99775.38;5025811;28;45454;-82
2021/10/30 02:29:32;;;;;;;;;9.33;9.00;;;;;15.67;74.97;99770.97;5058989;28;46648;-81
2021/10/30 02:31:58;;;;;;;;;9.33;8.00;;;;;15.67;75.28;99761.22;5076786;28;58161;-81
2021/10/30 02:34:23;;;;;;;;;15.67;13.67;;;;;15.67;74.99;99763.00;5076605;28;52074;-82
2021/10/30 02:36:48;;;;;;;;;8.00;8.00;;;;;15.67;75.35;99750.56;5050088;28;51416;-81
2021/10/30 02:39:14;;;;;;;;;15.00;13.67;;;;;15.68;74.99;99748.78;5058289;28;57987;-81
2021/10/30 02:41:39;;;;;;;;;10.67;9.00;;;;;15.68;75.18;99746.97;5029927;28;57342;-81
2021/10/30 02:44:05;;;;;;;;;12.67;11.00;;;;;15.68;75.22;99736.34;5072200;28;47586;-84
2021/10/30 02:46:30;;;;;;;;;14.00;11.00;;;;;15.67;75.17;99739.91;5076461;28;45422;-83
2021/10/30 02:48:56;;;;;;;;;9.33;9.33;;;;;15.68;75.16;99731.00;5058694;28;48019;-84
2021/10/30 02:51:21;;;;;;;;;12.67;11.00;;;;;15.68;75.34;99712.38;5049842;28;52740;-83
2021/10/30 02:53:46;;;;;;;;;16.00;11.00;;;;;15.68;75.63;99708.84;5076902;28;45321;-81
2021/10/30 02:56:12;;;;;;;;;12.00;12.00;;;;;15.62;75.05;99693.91;5076417;28;52350;-84
2021/10/30 02:58:37;;;;;;;;;11.00;11.00;;;;;15.65;75.05;99698.28;5075876;28;53694;-81
2021/10/30 03:01:03;;;;;;;;;13.33;10.67;;;;;15.67;75.44;99704.44;5076638;28;45485;-82
2021/10/30 03:03:28;;;;;;;;;10.33;10.00;;;;;15.64;75.53;99696.53;5076810;28;45454;-83
2021/10/30 03:05:53;;;;;;;;;10.67;10.67;;;;;15.68;75.32;99707.06;5050016;28;49004;-81
2021/10/30 03:08:19;;;;;;;;;11.33;10.00;;;;;15.68;75.67;99699.06;5076729;28;47542;-81
2021/10/30 03:10:44;;;;;;;;;11.00;11.00;;;;;15.69;75.46;99690.19;5076361;28;48944;-82
2021/10/30 03:13:10;;;;;;;;;12.33;10.33;;;;;15.70;75.23;99686.59;5076299;28;47160;-82
2021/10/30 03:15:36;;;;;;;;;9.33;9.33;;;;;15.66;75.37;99668.13;5033765;28;46276;-82
2021/10/30 03:18:01;;;;;;;;;12.00;10.00;;;;;15.67;75.40;99673.38;5076297;28;47458;-81
2021/10/30 03:20:26;;;;;;;;;11.00;11.00;;;;;15.69;75.35;99665.34;5075821;28;53621;-81
2021/10/30 03:22:52;;;;;;;;;15.33;14.00;;;;;15.69;75.04;99657.38;5075626;28;53335;-84
2021/10/30 03:25:17;;;;;;;;;17.33;12.67;;;;;15.67;75.25;99660.09;5076206;28;50220;-82
2021/10/30 03:27:42;;;;;;;;;16.33;12.67;;;;;15.66;75.29;99661.00;5075716;28;59098;-82
2021/10/30 03:30:08;;;;;;;;;13.67;11.33;;;;;15.63;75.34;99650.44;5041409;28;45391;-81
2021/10/30 03:32:34;;;;;;;;;11.00;11.00;;;;;15.67;74.92;99645.91;5035044;28;45407;-82
2021/10/30 03:34:59;;;;;;;;;13.67;12.00;;;;;15.63;75.01;99642.44;5074455;28;45457;-81
2021/10/30 03:37:25;;;;;;;;;12.00;11.33;;;;;15.65;75.31;99632.63;5058400;28;46509;-81
2021/10/30 03:39:52;;;;;;;;;10.00;9.67;;;;;15.61;75.12;99630.09;5076113;28;45217;-82
2021/10/30 03:42:18;;;;;;;;;11.67;10.67;;;;;15.63;75.28;99650.44;5068469;28;45171;-81
2021/10/30 03:44:43;;;;;;;;;10.67;10.67;;;;;15.55;75.29;99635.56;5076163;28;45642;-84
2021/10/30 03:47:08;;;;;;;;;9.00;8.33;;;;;15.57;75.54;99631.09;5057048;28;55349;-82
2021/10/30 03:49:34;;;;;;;;;12.00;10.33;;;;;15.54;75.19;99626.72;5029114;28;57499;-81
2021/10/30 03:51:59;;;;;;;;;18.33;12.67;;;;;15.56;75.23;99624.91;5073371;28;45260;-82
2021/10/30 03:54:25;;;;;;;;;12.33;11.33;;;;;15.53;75.52;99635.63;5050726;28;45235;-82
2021/10/30 03:56:50;;;;;;;;;16.00;11.33;;;;;15.55;75.57;99622.25;5042274;28;54940;-81
2021/10/30 03:59:15;;;;;;;;;13.33;12.67;;;;;15.55;75.54;99625.78;5074316;28;53762;-83
2021/10/30 04:01:41;;;;;;;;;15.67;12.33;;;;;15.56;75.30;99635.53;5076289;28;45478;-81
2021/10/30 04:04:07;;;;;;;;;11.00;9.67;;;;;15.53;75.11;99621.44;5076055;28;45236;-81
2021/10/30 04:06:32;;;;;;;;;13.67;11.00;;;;;15.55;75.37;99627.59;5046648;28;47851;-81
2021/10/30 04:08:58;;;;;;;;;12.33;11.33;;;;;15.56;75.29;99616.91;5071926;28;45299;-83
2021/10/30 04:11:23;;;;;;;;;12.67;10.00;;;;;15.55;74.82;99614.28;5048583;28;57365;-81
2021/10/30 04:13:49;;;;;;;;;13.00;11.00;;;;;15.57;74.90;99609.81;5057293;28;45577;-83
2021/10/30 04:16:16;;;;;;;;;11.00;9.67;;;;;15.57;75.22;99612.47;5074722;28;60304;-83
2021/10/30 04:18:43;;;;;;;;;10.67;10.67;;;;;15.57;75.25;99610.66;5075816;28;45489;-81
2021/10/30 04:21:10;;;;;;;;;11.33;10.00;;;;;15.58;74.89;99615.06;5069941;28;45434;-83
2021/10/30 04:23:35;;;;;;;;;9.00;9.00;;;;;15.58;74.85;99623.06;5075698;28;45369;-84
2021/10/30 04:26:00;;;;;;;;;11.00;9.00;;;;;15.59;74.95;99619.47;5045491;28;58273;-82
2021/10/30 04:28:26;;;;;;;;;9.00;9.00;;;;;15.60;74.68;99609.69;5077140;28;56616;-82
2021/10/30 04:30:51;;;;;;;;;11.00;11.00;;;;;15.60;74.71;99613.22;5078857;28;52636;-82
2021/10/30 04:33:17;;;;;;;;;11.00;8.33;;;;;15.60;75.06;99617.69;5078476;28;52650;-81
2021/10/30 04:35:43;;;;;;;;;10.00;10.00;;;;;15.59;74.70;99613.28;5079200;28;45777;-82
2021/10/30 04:38:08;;;;;;;;;10.00;8.33;;;;;15.58;75.04;99615.06;5079215;28;45253;-82
2021/10/30 04:40:35;;;;;;;;;10.00;9.00;;;;;15.58;74.60;99612.41;5078774;28;45303;-84
2021/10/30 04:43:00;;;;;;;;;10.00;10.00;;;;;15.55;75.07;99616.94;5079217;28;45509;-82
2021/10/30 04:45:26;;;;;;;;;10.00;7.33;;;;;15.53;75.10;99601.03;5078115;28;46483;-82
2021/10/30 04:47:51;;;;;;;;;9.33;8.00;;;;;15.53;75.23;99610.81;5078593;28;47952;-83
2021/10/30 04:50:17;;;;;;;;;13.33;11.00;;;;;15.51;74.75;99607.31;5078666;28;45111;-85
2021/10/30 04:52:43;;;;;;;;;10.00;8.00;;;;;15.50;75.04;99605.56;5043575;28;54036;-82
2021/10/30 04:55:09;;;;;;;;;11.00;10.00;;;;;15.42;75.00;99592.50;5060698;28;47135;-81
2021/10/30 04:57:34;;;;;;;;;9.00;9.00;;;;;15.46;75.31;99597.69;5078397;28;45621;-82
2021/10/30 04:59:59;;;;;;;;;10.33;9.00;;;;;15.46;75.52;99592.34;5078422;28;52929;-83
2021/10/30 05:02:25;;;;;;;;;9.67;8.67;;;;;15.45;75.53;99592.41;5060408;28;45236;-81
2021/10/30 05:04:50;;;;;;;;;7.00;7.00;;;;;15.44;75.88;99594.16;5059910;28;57236;-82
2021/10/30 05:07:15;;;;;;;;;9.00;7.33;;;;;15.39;75.51;99581.91;5078571;28;45492;-82
2021/10/30 05:09:41;;;;;;;;;8.67;7.33;;;;;15.44;75.37;99585.31;5043661;28;49270;-82
2021/10/30 05:12:07;;;;;;;;;9.33;8.00;;;;;15.44;75.70;99587.97;5060316;28;45217;-85
2021/10/30 05:14:32;;;;;;;;;8.00;8.00;;;;;15.41;75.46;99574.78;5059211;28;48449;-82
2021/10/30 05:16:58;;;;;;;;;10.00;9.00;;;;;15.43;75.41;99587.13;5077773;28;45444;-82
2021/10/30 05:19:23;;;;;;;;;6.67;6.67;;;;;15.42;75.96;99584.50;5078089;28;54604;-82
2021/10/30 05:21:48;;;;;;;;;13.00;10.00;;;;;15.43;75.73;99573.81;5026824;28;45312;-84
2021/10/30 05:24:14;;;;;;;;;10.00;9.00;;;;;15.43;75.75;99568.50;5078209;28;46610;-82
2021/10/30 05:26:39;;;;;;;;;10.00;9.00;;;;;15.42;75.86;99572.06;5077737;28;45392;-82
2021/10/30 05:29:05;;;;;;;;;6.33;6.33;;;;;15.40;75.77;99571.25;5060316;28;45644;-83
2021/10/30 05:31:30;;;;;;;;;8.67;7.00;;;;;15.40;76.11;99568.59;5059438;28;45296;-82
2021/10/30 05:33:56;;;;;;;;;10.00;7.00;;;;;15.38;75.79;99564.22;5077562;28;49672;-82
2021/10/30 05:36:25;;;;;;;;;8.00;8.00;;;;;15.37;75.71;99558.03;5077141;28;45253;-83
2021/10/30 05:38:52;;;;;;;;;7.00;7.00;;;;;15.42;76.29;99579.19;5077707;28;45423;-81
2021/10/30 05:41:18;;;;;;;;;10.67;8.00;;;;;15.42;75.80;99573.88;5078170;28;45291;-82
2021/10/30 05:43:44;;;;;;;;;8.33;8.00;;;;;15.41;75.70;99569.47;5077612;28;46420;-82
2021/10/30 05:46:09;;;;;;;;;8.67;7.00;;;;;15.39;75.93;99552.66;5059528;28;45362;-83
2021/10/30 05:48:36;;;;;;;;;7.33;7.33;;;;;15.43;76.33;99565.84;5025260;28;50110;-82
2021/10/30 05:51:01;;;;;;;;;7.67;6.33;;;;;15.42;76.22;99565.88;5057994;28;45466;-82
2021/10/30 05:53:27;;;;;;;;;7.67;7.00;;;;;15.42;76.49;99573.88;5055285;28;46759;-83
2021/10/30 05:55:53;;;;;;;;;7.00;7.00;;;;;15.43;76.32;99556.97;5074224;28;45265;-82
2021/10/30 05:58:18;;;;;;;;;8.00;8.00;;;;;15.43;76.46;99565.84;5077810;28;45526;-82
2021/10/30 06:00:43;;;;;;;;;9.00;7.00;;;;;15.41;76.50;99557.03;5077580;28;51146;-81
2021/10/30 06:03:09;;;;;;;;;7.00;7.00;;;;;15.45;76.61;99556.03;5076799;28;57400;-85
2021/10/30 06:05:34;;;;;;;;;10.00;7.00;;;;;15.44;76.52;99564.03;5077756;28;45374;-82
2021/10/30 06:08:00;;;;;;;;;9.00;6.67;;;;;15.45;76.60;99556.03;5077860;28;45279;-81
2021/10/30 06:10:26;;;;;;;;;6.00;6.00;;;;;15.46;76.52;99565.75;5077378;28;45203;-82
2021/10/30 06:12:52;;;;;;;;;8.00;7.00;;;;;15.49;76.18;99564.78;5073788;28;47392;-82
2021/10/30 06:15:17;;;;;;;;;6.33;6.33;;;;;15.50;76.32;99565.66;5040062;28;45636;-82
2021/10/30 06:17:42;;;;;;;;;8.00;7.00;;;;;15.47;76.97;99558.66;5077015;28;55528;-82
2021/10/30 06:20:08;;;;;;;;;5.67;5.33;;;;;15.51;76.54;99562.97;5052901;28;45425;-81
2021/10/30 06:22:34;;;;;;;;;8.00;6.67;;;;;15.53;76.43;99562.91;5057399;28;46051;-82
2021/10/30 06:24:59;;;;;;;;;9.00;9.00;;;;;15.54;76.19;99567.31;5037927;28;45324;-84
2021/10/30 06:27:25;;;;;;;;;10.00;7.67;;;;;15.49;76.58;99555.94;5073781;28;45395;-82
2021/10/30 06:29:50;;;;;;;;;6.33;6.33;;;;;15.55;76.48;99563.72;5077782;28;45351;-85
2021/10/30 06:32:16;;;;;;;;;6.33;6.00;;;;;15.57;76.51;99561.91;5077263;28;46397;-82
2021/10/30 06:34:41;;;;;;;;;7.00;7.00;;;;;15.57;76.29;99554.78;5050068;28;57528;-81
2021/10/30 06:37:07;;;;;;;;;8.00;6.33;;;;;15.57;76.51;99562.78;5077345;28;45350;-82
2021/10/30 06:39:33;;;;;;;;;9.33;8.00;;;;;15.52;76.62;99543.41;5059073;28;45402;-82
2021/10/30 06:41:58;;;;;;;;;6.67;5.67;;;;;15.60;76.27;99562.66;5076938;28;46894;-83
2021/10/30 06:44:23;;;;;;;;;8.00;7.00;;;;;15.62;76.39;99560.00;5076635;28;48539;-81
2021/10/30 06:46:51;;;;;;;;;6.00;6.00;;;;;15.61;76.68;99558.25;5076615;28;45453;-78
2021/10/30 06:49:17;;;;;;;;;8.00;6.67;;;;;15.65;76.67;99563.44;5068739;28;45307;-79
2021/10/30 06:51:42;;;;;;;;;7.67;7.00;;;;;15.66;76.56;99564.34;5076728;28;46304;-78
2021/10/30 06:54:08;;;;;;;;;7.33;7.33;;;;;15.62;76.54;99547.56;5058644;28;45435;-78
2021/10/30 06:56:34;;;;;;;;;7.00;5.00;;;;;15.65;77.04;99550.13;5065196;28;45530;-78
2021/10/30 06:59:02;;;;;;;;;6.33;6.00;;;;;15.68;76.62;99551.84;5065059;28;45638;-80
2021/10/30 07:01:28;;;;;;;;;5.00;5.00;;;;;15.67;76.90;99552.78;5078425;27;47430;-79
2021/10/30 07:03:53;;;;;;;;;8.00;7.00;;;;;15.70;76.58;99542.03;5058509;28;55187;-78
2021/10/30 07:06:19;;;;;;;;;6.00;6.00;;;;;15.71;76.26;99543.75;5076553;27;45524;-78
2021/10/30 07:08:44;;;;;;;;;7.00;5.67;;;;;15.70;76.70;99534.91;5076521;28;46018;-78
2021/10/30 07:11:09;;;;;;;;;7.00;6.00;;;;;15.73;76.83;99551.72;5076748;28;45598;-78
2021/10/30 07:13:35;;;;;;;;;7.00;6.00;;;;;15.75;76.42;99549.88;5075927;28;57191;-78
2021/10/30 07:16:00;;;;;;;;;6.00;6.00;;;;;15.76;76.21;99546.28;5071880;28;46607;-78
2021/10/30 07:18:25;;;;;;;;;5.00;5.00;;;;;15.77;76.51;99548.91;5058458;28;45447;-80
2021/10/30 07:20:52;;;;;;;;;6.00;5.00;;;;;15.77;76.46;99550.72;5069022;28;53515;-80
2021/10/30 07:23:17;;;;;;;;;6.00;6.00;;;;;15.74;76.06;99546.34;5057305;28;45456;-78
2021/10/30 07:25:42;;;;;;;;;8.00;4.00;;;;;15.78;76.51;99545.31;5069688;28;55708;-79
2021/10/30 07:28:08;;;;;;;;;8.00;6.00;;;;;15.79;76.11;99554.19;5075404;28;53425;-80
2021/10/30 07:30:33;;;;;;;;;6.00;5.00;;;;;15.81;76.24;99557.66;5073552;28;55957;-79
2021/10/30 07:32:58;;;;;;;;;5.00;5.00;;;;;15.83;76.23;99555.84;5071433;28;56572;-79
2021/10/30 07:35:24;;;;;;;;;8.33;7.00;;;;;15.86;75.88;99563.72;5056731;28;46349;-78
2021/10/30 07:37:50;;;;;;;;;5.00;4.33;;;;;15.88;76.11;99569.88;5074681;28;45441;-79
2021/10/30 07:40:15;;;;;;;;;7.33;7.00;;;;;15.84;76.34;99566.44;5050507;28;45488;-80
2021/10/30 07:42:44;;;;;;;;;6.33;5.00;;;;;15.81;76.26;99562.97;5058099;28;45347;-80
2021/10/30 07:45:09;;;;;;;;;7.33;6.00;;;;;15.77;76.53;99564.00;5075130;28;45323;-79
2021/10/30 07:47:35;;;;;;;;;5.67;5.67;;;;;15.67;76.81;99572.28;5076380;28;45343;-79
2021/10/30 07:50:00;;;;;;;;;5.00;4.00;;;;;15.62;76.80;99571.50;5075989;28;47376;-78
2021/10/30 07:52:26;;;;;;;;;5.00;4.00;;;;;15.63;77.18;99581.25;5076335;28;45464;-78
2021/10/30 07:54:51;;;;;;;;;7.00;5.67;;;;;15.62;77.09;99586.59;5076283;28;45418;-78
2021/10/30 07:57:17;;;;;;;;;7.00;5.00;;;;;15.60;77.22;99581.28;5075607;28;52037;-78
2021/10/30 07:59:42;;;;;;;;;8.00;6.00;;;;;15.59;77.79;99581.34;5076761;28;47236;-78
2021/10/30 08:02:08;;;;;;;;;5.00;5.00;;;;;15.57;77.62;99585.84;5075579;28;57909;-79
2021/10/30 08:04:36;;;;;;;;;5.00;5.00;;;;;15.43;77.30;99567.63;5079141;28;45496;-80
2021/10/30 08:07:03;;;;;;;;;5.00;5.00;;;;;15.60;77.35;99589.28;5053840;28;45398;-78
2021/10/30 08:09:29;;;;;;;;;5.33;5.00;;;;;15.62;77.24;99595.44;5079579;28;47005;-78
2021/10/30 08:11:54;;;;;;;;;5.67;5.00;;;;;15.62;76.98;99589.25;5079178;28;45339;-78
2021/10/30 08:14:19;;;;;;;;;7.00;5.00;;;;;15.63;76.92;99589.22;5075031;28;54271;-80
2021/10/30 08:16:45;;;;;;;;;5.67;5.33;;;;;15.67;78.04;99596.22;5079985;28;45130;-80
2021/10/30 08:19:10;;;;;;;;;9.00;6.00;;;;;15.69;77.60;99589.06;5079573;28;45952;-78
2021/10/30 08:21:35;;;;;;;;;2.00;2.00;;;;;15.75;76.97;99590.66;5056924;28;45400;-79
2021/10/30 08:24:02;;;;;;;;;6.00;6.00;;;;;15.85;76.68;99604.56;5060894;28;51750;-79
2021/10/30 08:26:29;;;;;;;;;6.00;5.00;;;;;15.93;77.06;99606.09;5079436;28;45323;-79
2021/10/30 08:28:55;;;;;;;;;5.00;5.00;;;;;16.03;76.65;99600.47;5078102;28;46586;-79
2021/10/30 08:31:20;;;;;;;;;7.00;6.00;;;;;16.06;76.60;99593.25;5078801;28;45560;-79
2021/10/30 08:33:46;;;;;;;;;6.00;3.00;;;;;16.21;76.40;99603.44;5042574;28;53943;-79
2021/10/30 08:36:11;;;;;;;;;5.67;5.67;;;;;16.30;76.22;99604.03;5059445;28;45483;-80
2021/10/30 08:38:36;;;;;;;;;5.00;5.00;;;;;16.30;76.07;99602.28;5078260;28;46138;-81
2021/10/30 08:41:02;;;;;;;;;7.67;6.00;;;;;16.36;75.73;99602.06;5056638;28;45618;-80
2021/10/30 08:43:28;;;;;;;;;6.33;5.00;;;;;16.38;75.71;99604.69;5078524;28;45646;-81
2021/10/30 08:45:54;;;;;;;;;6.00;6.00;;;;;16.39;75.54;99599.28;5045705;28;45576;-81
2021/10/30 08:48:21;;;;;;;;;5.00;5.00;;;;;16.44;75.79;99593.81;5068046;28;47011;-80
2021/10/30 08:50:48;;;;;;;;;7.00;7.00;;;;;16.41;75.85;99585.94;5078034;28;45431;-80
2021/10/30 08:53:13;;;;;;;;;7.67;7.67;;;;;16.47;75.75;99593.72;5051849;28;45451;-80
2021/10/30 08:55:39;;;;;;;;;6.00;6.00;;;;;16.47;75.58;99593.72;5058709;28;45442;-79
2021/10/30 08:58:12;;;;;;;;;6.00;5.00;;;;;16.49;75.36;99597.19;5076873;28;47849;-80
2021/10/30 09:00:58;;;;;;;;;4.00;4.00;;;;;16.50;75.32;99599.81;5072975;28;45517;-78
2021/10/30 09:03:24;;;;;;;;;7.33;7.00;;;;;16.49;75.39;99599.88;5067696;28;45467;-78
2021/10/30 09:05:54;;;;;;;;;6.00;6.00;;;;;16.51;75.39;99606.00;5063591;28;45406;-78
2021/10/30 09:08:23;;;;;;;;;5.00;5.00;;;;;16.52;75.27;99598.91;5058391;28;47502;-80
2021/10/30 09:10:56;;;;;;;;;7.00;7.00;;;;;16.52;75.28;99593.59;5058314;28;45341;-78
2021/10/30 09:13:22;;;;;;;;;6.00;6.00;;;;;16.56;75.62;99598.72;5066237;28;45375;-79
2021/10/30 09:15:50;;;;;;;;;9.00;7.00;;;;;16.59;75.06;99595.97;5061404;28;45555;-78
2021/10/30 09:18:29;;;;;;;;;4.33;4.33;;;;;16.61;74.93;99595.91;5064736;28;48222;-79
2021/10/30 09:20:56;;;;;;;;;6.00;6.00;;;;;16.60;75.03;99591.53;5065376;28;45355;-79
2021/10/30 09:23:25;;;;;;;;;6.67;5.67;;;;;16.66;75.29;99604.63;5063078;28;45465;-77
2021/10/30 09:25:56;;;;;;;;;7.00;7.00;;;;;16.69;75.26;99609.88;5059604;28;45608;-81
2021/10/30 09:28:23;;;;;;;;;6.33;6.33;;;;;16.70;75.10;99614.28;5041778;28;48275;-79
2021/10/30 09:30:54;;;;;;;;;4.67;4.67;;;;;16.70;74.94;99612.47;5077515;28;45839;-79
2021/10/30 09:33:20;;;;;;;;;6.00;6.00;;;;;16.70;74.78;99603.63;5030628;28;45363;-78
2021/10/30 09:35:46;;;;;;;;;5.67;5.67;;;;;16.72;74.78;99600.03;5061591;28;45229;-78
2021/10/30 09:38:35;;;;;;;;;5.67;4.00;;;;;16.76;74.86;99608.75;5058406;28;47243;-79
2021/10/30 09:41:01;;;;;;;;;7.67;3.33;;;;;16.75;74.95;99607.91;5069450;28;45501;-78
2021/10/30 09:43:27;;;;;;;;;3.00;3.00;;;;;16.82;74.78;99615.69;5043503;28;45429;-78
2021/10/30 09:46:02;;;;;;;;;4.33;4.33;;;;;16.84;74.77;99617.38;5078650;28;45492;-80
2021/10/30 09:48:28;;;;;;;;;5.00;4.00;;;;;16.88;75.14;99618.13;5068146;28;47484;-79
2021/10/30 09:50:55;;;;;;;;;4.00;4.00;;;;;16.92;74.98;99620.66;5023520;28;45263;-78
2021/10/30 09:53:27;;;;;;;;;3.67;3.67;;;;;16.93;75.13;99626.84;5058014;28;45331;-78
2021/10/30 09:56:08;;;;;;;;;3.00;3.00;;;;;16.93;75.17;99626.84;5058551;28;45455;-79
2021/10/30 09:58:44;;;;;;;;;3.00;2.33;;;;;16.91;75.07;99620.72;5057752;28;46981;-79
2021/10/30 10:01:17;;;;;;;;;2.33;2.33;;;;;16.94;75.50;99631.28;5057894;28;45240;-78
2021/10/30 10:03:44;;;;;;;;;2.00;2.00;;;;;16.93;75.13;99625.06;5043858;28;45439;-78
2021/10/30 10:06:11;;;;;;;;;3.00;3.00;;;;;16.94;75.45;99626.81;5078397;28;45438;-78
2021/10/30 10:08:37;;;;;;;;;3.33;3.00;;;;;16.91;75.08;99608.25;5078098;28;46721;-78
2021/10/30 10:11:11;;;;;;;;;3.00;3.00;;;;;16.99;75.69;99630.19;5078059;28;45212;-78
2021/10/30 10:13:37;;;;;;;;;2.00;2.00;;;;;16.98;75.97;99624.91;5059623;28;45422;-78
2021/10/30 10:16:05;;;;;;;;;4.00;4.00;;;;;16.95;75.90;99628.56;5043601;28;45253;-78
2021/10/30 10:18:30;;;;;;;;;7.00;4.00;;;;;16.87;75.55;99619.06;5057689;28;47339;-78
2021/10/30 10:20:56;;;;;;;;;4.67;4.67;;;;;16.86;76.07;99636.00;5031772;28;45240;-78
2021/10/30 10:23:21;;;;;;;;;4.67;4.67;;;;;16.77;76.18;99627.38;5048466;28;54258;-78
2021/10/30 10:25:58;;;;;;;;;3.00;3.00;;;;;16.83;75.92;99646.75;5074615;28;45292;-78
2021/10/30 10:28:33;;;;;;;;;2.33;2.33;;;;;16.84;76.35;99632.53;5057653;28;46713;-78
2021/10/30 10:31:00;;;;;;;;;6.00;5.00;;;;;16.89;75.90;99642.09;5075398;28;45608;-78
2021/10/30 10:33:27;;;;;;;;;4.00;4.00;;;;;16.94;76.01;99642.81;5049253;28;45406;-78
2021/10/30 10:36:14;;;;;;;;;4.00;4.00;;;;;17.05;75.54;99647.78;5039830;28;45518;-78
2021/10/30 10:38:57;;;;;;;;;4.00;4.00;;;;;17.11;75.62;99638.69;5071467;28;45878;-79
2021/10/30 10:41:44;;;;;;;;;3.00;3.00;;;;;17.12;75.41;99645.78;5068848;28;45373;-77
2021/10/30 10:44:09;;;;;;;;;3.33;3.33;;;;;17.14;75.61;99641.25;5067367;28;45234;-78
2021/10/30 10:46:56;;;;;;;;;3.67;3.67;;;;;17.12;75.32;99641.31;5070810;28;45375;-78
2021/10/30 10:49:38;;;;;;;;;3.67;2.67;;;;;17.11;75.26;99639.56;5060403;28;46276;-78
2021/10/30 10:55:07;;;;;;;;;5.33;3.33;;;;;17.13;75.36;99640.38;5058036;28;45406;-78
2021/10/30 10:57:33;;;;;;;;;3.00;3.00;;;;;17.11;75.22;99639.56;5055543;28;45318;-79
2021/10/30 11:00:10;;;;;;;;;4.00;4.00;;;;;17.06;75.05;99630.84;5055332;28;47512;-78
2021/10/30 11:02:38;;;;;;;;;2.67;2.67;;;;;17.06;75.24;99629.97;5060063;28;45554;-80
2021/10/30 11:05:14;;;;;;;;;5.00;4.00;;;;;17.08;75.37;99639.66;5050045;28;45309;-79
2021/10/30 11:07:49;;;;;;;;;3.33;3.33;;;;;17.02;75.39;99622.06;5074120;28;45541;-81
2021/10/30 11:10:26;;;;;;;;;6.00;4.00;;;;;17.12;75.25;99640.44;5075706;28;47837;-80
2021/10/30 11:12:58;;;;;;;;;3.33;3.33;;;;;17.09;74.95;99630.72;5172249;22;45910;-78
2021/10/30 11:15:23;;;;;;;;;4.00;4.00;;;;;17.13;75.37;99624.38;5060229;28;45369;-78
2021/10/30 11:17:56;;;;;;;;;7.33;6.00;;;;;17.06;75.39;99608.66;5057364;28;45366;-78
2021/10/30 11:20:24;;;;;;;;;5.00;4.00;;;;;17.13;75.21;99637.69;5060688;28;46675;-79
2021/10/30 11:23:00;;;;;;;;;3.33;3.33;;;;;17.11;75.33;99625.38;5039807;28;45461;-79
2021/10/30 11:25:29;;;;;;;;;3.67;3.00;;;;;17.10;75.43;99639.59;5061302;28;45365;-78
2021/10/30 11:27:55;;;;;;;;;4.00;3.00;;;;;17.10;75.15;99637.84;5058899;28;45394;-81